sensor_id;sensor_type;location;lat;lon;timestamp;P1;durP1;ratioP1;P2;durP2;ratioP2
13238;SDS011;6686;51.292;4.166;2022-12-07T00:02:41;6.70;;;5.00;;
13238;SDS011;6686;51.292;4.166;2022-12-07T00:05:27;5.77;;;4.20;;
13238;SDS011;6686;51.292;4.166;2022-12-07T00:08:12;5.90;;;5.00;;
13238;SDS011;6686;51.292;4.166;2022-12-07T00:11:05;7.63;;;5.07;;
13238;SDS011;6686;51.292;4.166;2022-12-07T00:13:51;8.80;;;4.83;;
13238;SDS011;6686;51.292;4.166;2022-12-07T00:16:34;7.83;;;4.17;;
13238;SDS011;6686;51.292;4.166;2022-12-07T00:19:19;5.80;;;3.90;;
13238;SDS011;6686;51.292;4.166;2022-12-07T00:22:05;9.33;;;3.93;;
13238;SDS011;6686;51.292;4.166;2022-12-07T00:24:51;6.90;;;4.20;;
13238;SDS011;6686;51.292;4.166;2022-12-07T00:27:37;7.80;;;3.77;;
13238;SDS011;6686;51.292;4.166;2022-12-07T00:30:23;7.22;;;4.20;;
13238;SDS011;6686;51.292;4.166;2022-12-07T00:33:09;11.00;;;3.90;;
13238;SDS011;6686;51.292;4.166;2022-12-07T00:35:56;5.07;;;3.45;;
13238;SDS011;6686;51.292;4.166;2022-12-07T00:38:42;9.73;;;4.23;;
13238;SDS011;6686;51.292;4.166;2022-12-07T00:41:28;6.37;;;3.50;;
13238;SDS011;6686;51.292;4.166;2022-12-07T00:44:13;6.12;;;3.35;;
13238;SDS011;6686;51.292;4.166;2022-12-07T00:46:59;8.00;;;3.53;;
13238;SDS011;6686;51.292;4.166;2022-12-07T00:49:45;6.07;;;3.60;;
13238;SDS011;6686;51.292;4.166;2022-12-07T00:52:31;6.23;;;3.00;;
13238;SDS011;6686;51.292;4.166;2022-12-07T00:55:16;4.57;;;3.00;;
13238;SDS011;6686;51.292;4.166;2022-12-07T00:58:03;4.37;;;3.07;;
13238;SDS011;6686;51.292;4.166;2022-12-07T01:00:49;5.57;;;2.60;;
13238;SDS011;6686;51.292;4.166;2022-12-07T01:03:35;4.23;;;3.13;;
13238;SDS011;6686;51.292;4.166;2022-12-07T01:06:21;3.60;;;2.73;;
13238;SDS011;6686;51.292;4.166;2022-12-07T01:09:07;5.87;;;2.70;;
13238;SDS011;6686;51.292;4.166;2022-12-07T01:11:53;5.50;;;2.80;;
13238;SDS011;6686;51.292;4.166;2022-12-07T01:14:39;7.40;;;3.10;;
13238;SDS011;6686;51.292;4.166;2022-12-07T01:17:25;6.47;;;3.00;;
13238;SDS011;6686;51.292;4.166;2022-12-07T01:20:11;7.47;;;3.43;;
13238;SDS011;6686;51.292;4.166;2022-12-07T01:22:58;7.50;;;3.77;;
13238;SDS011;6686;51.292;4.166;2022-12-07T01:25:44;6.68;;;3.58;;
13238;SDS011;6686;51.292;4.166;2022-12-07T01:28:31;5.78;;;3.80;;
13238;SDS011;6686;51.292;4.166;2022-12-07T01:31:19;4.90;;;3.17;;
13238;SDS011;6686;51.292;4.166;2022-12-07T01:34:06;8.43;;;3.13;;
13238;SDS011;6686;51.292;4.166;2022-12-07T01:36:52;6.63;;;2.47;;
13238;SDS011;6686;51.292;4.166;2022-12-07T01:39:38;8.53;;;2.90;;
13238;SDS011;6686;51.292;4.166;2022-12-07T01:42:24;6.07;;;2.73;;
13238;SDS011;6686;51.292;4.166;2022-12-07T01:48:19;8.33;;;2.63;;
13238;SDS011;6686;51.292;4.166;2022-12-07T01:51:09;3.57;;;2.40;;
13238;SDS011;6686;51.292;4.166;2022-12-07T01:53:52;6.37;;;2.53;;
13238;SDS011;6686;51.292;4.166;2022-12-07T01:56:38;3.30;;;2.60;;
13238;SDS011;6686;51.292;4.166;2022-12-07T01:59:27;2.50;;;2.30;;
13238;SDS011;6686;51.292;4.166;2022-12-07T02:02:17;4.77;;;2.80;;
13238;SDS011;6686;51.292;4.166;2022-12-07T02:05:00;9.27;;;2.90;;
13238;SDS011;6686;51.292;4.166;2022-12-07T02:07:46;5.63;;;2.93;;
13238;SDS011;6686;51.292;4.166;2022-12-07T02:10:32;5.90;;;3.37;;
13238;SDS011;6686;51.292;4.166;2022-12-07T02:13:22;6.73;;;3.50;;
13238;SDS011;6686;51.292;4.166;2022-12-07T02:16:25;5.07;;;3.57;;
13238;SDS011;6686;51.292;4.166;2022-12-07T02:19:23;4.47;;;3.33;;
13238;SDS011;6686;51.292;4.166;2022-12-07T02:22:25;6.70;;;3.70;;
13238;SDS011;6686;51.292;4.166;2022-12-07T02:28:21;5.10;;;3.53;;
13238;SDS011;6686;51.292;4.166;2022-12-07T02:31:10;6.67;;;4.03;;
13238;SDS011;6686;51.292;4.166;2022-12-07T02:34:00;6.10;;;4.12;;
13238;SDS011;6686;51.292;4.166;2022-12-07T02:36:43;6.57;;;3.17;;
13238;SDS011;6686;51.292;4.166;2022-12-07T02:39:34;6.73;;;3.20;;
13238;SDS011;6686;51.292;4.166;2022-12-07T02:42:17;5.13;;;3.23;;
13238;SDS011;6686;51.292;4.166;2022-12-07T02:45:03;5.43;;;3.43;;
13238;SDS011;6686;51.292;4.166;2022-12-07T02:47:50;5.07;;;3.10;;
13238;SDS011;6686;51.292;4.166;2022-12-07T02:50:35;4.47;;;3.37;;
13238;SDS011;6686;51.292;4.166;2022-12-07T02:53:31;5.63;;;3.30;;
13238;SDS011;6686;51.292;4.166;2022-12-07T03:02:28;5.75;;;3.40;;
13238;SDS011;6686;51.292;4.166;2022-12-07T03:05:27;5.80;;;3.60;;
13238;SDS011;6686;51.292;4.166;2022-12-07T03:08:14;6.27;;;2.77;;
13238;SDS011;6686;51.292;4.166;2022-12-07T03:14:13;8.17;;;2.90;;
13238;SDS011;6686;51.292;4.166;2022-12-07T03:17:04;5.63;;;3.30;;
13238;SDS011;6686;51.292;4.166;2022-12-07T03:19:54;9.77;;;4.18;;
13238;SDS011;6686;51.292;4.166;2022-12-07T03:22:39;8.27;;;3.50;;
13238;SDS011;6686;51.292;4.166;2022-12-07T03:25:25;7.57;;;3.23;;
13238;SDS011;6686;51.292;4.166;2022-12-07T03:28:12;8.43;;;3.33;;
13238;SDS011;6686;51.292;4.166;2022-12-07T03:31:09;4.40;;;3.23;;
13238;SDS011;6686;51.292;4.166;2022-12-07T03:33:56;7.03;;;3.10;;
13238;SDS011;6686;51.292;4.166;2022-12-07T03:36:47;7.53;;;3.27;;
13238;SDS011;6686;51.292;4.166;2022-12-07T03:39:52;5.83;;;2.77;;
13238;SDS011;6686;51.292;4.166;2022-12-07T03:42:52;9.10;;;3.10;;
13238;SDS011;6686;51.292;4.166;2022-12-07T03:48:25;7.13;;;3.30;;
13238;SDS011;6686;51.292;4.166;2022-12-07T03:54:21;8.63;;;3.10;;
13238;SDS011;6686;51.292;4.166;2022-12-07T03:57:05;8.50;;;4.13;;
13238;SDS011;6686;51.292;4.166;2022-12-07T03:59:51;5.00;;;2.90;;
13238;SDS011;6686;51.292;4.166;2022-12-07T04:02:37;7.85;;;3.55;;
13238;SDS011;6686;51.292;4.166;2022-12-07T04:05:23;7.70;;;3.50;;
13238;SDS011;6686;51.292;4.166;2022-12-07T04:08:08;5.60;;;3.10;;
13238;SDS011;6686;51.292;4.166;2022-12-07T04:10:54;7.03;;;2.83;;
13238;SDS011;6686;51.292;4.166;2022-12-07T04:13:40;4.23;;;2.43;;
13238;SDS011;6686;51.292;4.166;2022-12-07T04:16:48;8.43;;;3.07;;
13238;SDS011;6686;51.292;4.166;2022-12-07T04:19:32;9.77;;;3.23;;
13238;SDS011;6686;51.292;4.166;2022-12-07T04:22:16;5.97;;;2.37;;
13238;SDS011;6686;51.292;4.166;2022-12-07T04:25:05;5.40;;;2.60;;
13238;SDS011;6686;51.292;4.166;2022-12-07T04:27:51;8.77;;;2.93;;
13238;SDS011;6686;51.292;4.166;2022-12-07T04:30:38;5.23;;;2.57;;
13238;SDS011;6686;51.292;4.166;2022-12-07T04:33:24;8.23;;;2.67;;
13238;SDS011;6686;51.292;4.166;2022-12-07T04:36:10;7.73;;;2.30;;
13238;SDS011;6686;51.292;4.166;2022-12-07T04:38:56;4.50;;;2.43;;
13238;SDS011;6686;51.292;4.166;2022-12-07T04:41:42;7.30;;;2.40;;
13238;SDS011;6686;51.292;4.166;2022-12-07T04:44:28;7.80;;;2.23;;
13238;SDS011;6686;51.292;4.166;2022-12-07T04:47:14;5.10;;;2.17;;
13238;SDS011;6686;51.292;4.166;2022-12-07T04:50:00;3.83;;;1.93;;
13238;SDS011;6686;51.292;4.166;2022-12-07T04:52:46;7.57;;;2.47;;
13238;SDS011;6686;51.292;4.166;2022-12-07T04:55:32;7.07;;;2.37;;
13238;SDS011;6686;51.292;4.166;2022-12-07T04:58:18;2.83;;;1.70;;
13238;SDS011;6686;51.292;4.166;2022-12-07T05:01:04;6.70;;;1.93;;
13238;SDS011;6686;51.292;4.166;2022-12-07T05:03:49;6.13;;;2.10;;
13238;SDS011;6686;51.292;4.166;2022-12-07T05:06:35;4.90;;;2.40;;
13238;SDS011;6686;51.292;4.166;2022-12-07T05:09:21;5.00;;;2.07;;
13238;SDS011;6686;51.292;4.166;2022-12-07T05:12:07;5.37;;;2.17;;
13238;SDS011;6686;51.292;4.166;2022-12-07T05:14:53;6.13;;;2.90;;
13238;SDS011;6686;51.292;4.166;2022-12-07T05:17:39;3.87;;;2.23;;
13238;SDS011;6686;51.292;4.166;2022-12-07T05:20:25;5.50;;;2.40;;
13238;SDS011;6686;51.292;4.166;2022-12-07T05:23:11;4.93;;;2.20;;
13238;SDS011;6686;51.292;4.166;2022-12-07T05:25:57;3.83;;;2.47;;
13238;SDS011;6686;51.292;4.166;2022-12-07T05:28:42;4.82;;;2.70;;
13238;SDS011;6686;51.292;4.166;2022-12-07T05:31:28;4.70;;;2.30;;
13238;SDS011;6686;51.292;4.166;2022-12-07T05:34:15;5.62;;;2.75;;
13238;SDS011;6686;51.292;4.166;2022-12-07T05:37:00;5.43;;;2.57;;
13238;SDS011;6686;51.292;4.166;2022-12-07T05:39:46;3.97;;;2.40;;
13238;SDS011;6686;51.292;4.166;2022-12-07T05:42:32;5.03;;;3.12;;
13238;SDS011;6686;51.292;4.166;2022-12-07T05:45:18;6.60;;;3.00;;
13238;SDS011;6686;51.292;4.166;2022-12-07T05:48:04;4.13;;;2.43;;
13238;SDS011;6686;51.292;4.166;2022-12-07T05:50:51;9.17;;;3.23;;
13238;SDS011;6686;51.292;4.166;2022-12-07T05:53:36;5.07;;;2.67;;
13238;SDS011;6686;51.292;4.166;2022-12-07T05:56:22;8.83;;;2.53;;
13238;SDS011;6686;51.292;4.166;2022-12-07T05:59:08;2.93;;;2.57;;
13238;SDS011;6686;51.292;4.166;2022-12-07T06:02:10;4.17;;;2.90;;
13238;SDS011;6686;51.292;4.166;2022-12-07T06:04:56;7.00;;;3.87;;
13238;SDS011;6686;51.292;4.166;2022-12-07T06:07:43;6.05;;;3.80;;
13238;SDS011;6686;51.292;4.166;2022-12-07T06:10:29;6.83;;;3.23;;
13238;SDS011;6686;51.292;4.166;2022-12-07T06:13:15;7.03;;;3.47;;
13238;SDS011;6686;51.292;4.166;2022-12-07T06:16:01;5.37;;;3.70;;
13238;SDS011;6686;51.292;4.166;2022-12-07T06:18:49;9.20;;;3.53;;
13238;SDS011;6686;51.292;4.166;2022-12-07T06:21:36;4.83;;;3.00;;
13238;SDS011;6686;51.292;4.166;2022-12-07T06:24:22;3.70;;;3.30;;
13238;SDS011;6686;51.292;4.166;2022-12-07T06:27:08;9.37;;;4.93;;
13238;SDS011;6686;51.292;4.166;2022-12-07T06:29:54;8.60;;;4.70;;
13238;SDS011;6686;51.292;4.166;2022-12-07T06:32:40;6.57;;;3.87;;
13238;SDS011;6686;51.292;4.166;2022-12-07T06:35:26;5.43;;;3.80;;
13238;SDS011;6686;51.292;4.166;2022-12-07T06:38:12;6.00;;;3.70;;
13238;SDS011;6686;51.292;4.166;2022-12-07T06:40:58;5.80;;;4.30;;
13238;SDS011;6686;51.292;4.166;2022-12-07T06:43:44;8.50;;;3.77;;
13238;SDS011;6686;51.292;4.166;2022-12-07T06:46:30;10.87;;;3.80;;
13238;SDS011;6686;51.292;4.166;2022-12-07T06:49:16;4.50;;;4.10;;
13238;SDS011;6686;51.292;4.166;2022-12-07T06:52:02;6.20;;;4.20;;
13238;SDS011;6686;51.292;4.166;2022-12-07T06:54:48;6.53;;;4.00;;
13238;SDS011;6686;51.292;4.166;2022-12-07T06:57:35;11.70;;;4.40;;
13238;SDS011;6686;51.292;4.166;2022-12-07T07:00:20;5.00;;;4.10;;
13238;SDS011;6686;51.292;4.166;2022-12-07T07:03:06;7.50;;;4.80;;
13238;SDS011;6686;51.292;4.166;2022-12-07T07:05:52;8.90;;;5.97;;
13238;SDS011;6686;51.292;4.166;2022-12-07T07:08:38;9.70;;;6.03;;
13238;SDS011;6686;51.292;4.166;2022-12-07T07:11:24;9.68;;;6.12;;
13238;SDS011;6686;51.292;4.166;2022-12-07T07:14:11;7.53;;;4.80;;
13238;SDS011;6686;51.292;4.166;2022-12-07T07:16:57;11.57;;;5.37;;
13238;SDS011;6686;51.292;4.166;2022-12-07T07:19:43;9.50;;;5.57;;
13238;SDS011;6686;51.292;4.166;2022-12-07T07:22:29;6.27;;;4.87;;
13238;SDS011;6686;51.292;4.166;2022-12-07T07:25:15;8.90;;;5.50;;
13238;SDS011;6686;51.292;4.166;2022-12-07T07:28:01;10.40;;;6.40;;
13238;SDS011;6686;51.292;4.166;2022-12-07T07:30:47;10.75;;;7.68;;
13238;SDS011;6686;51.292;4.166;2022-12-07T07:33:34;12.17;;;6.23;;
13238;SDS011;6686;51.292;4.166;2022-12-07T07:36:19;7.83;;;5.93;;
13238;SDS011;6686;51.292;4.166;2022-12-07T07:39:05;9.30;;;5.20;;
13238;SDS011;6686;51.292;4.166;2022-12-07T07:41:51;9.63;;;6.80;;
13238;SDS011;6686;51.292;4.166;2022-12-07T07:44:37;7.20;;;5.53;;
13238;SDS011;6686;51.292;4.166;2022-12-07T07:47:22;9.47;;;5.90;;
13238;SDS011;6686;51.292;4.166;2022-12-07T07:50:09;11.17;;;6.80;;
13238;SDS011;6686;51.292;4.166;2022-12-07T07:52:56;10.77;;;6.67;;
13238;SDS011;6686;51.292;4.166;2022-12-07T07:55:49;8.77;;;6.70;;
13238;SDS011;6686;51.292;4.166;2022-12-07T07:58:28;13.23;;;6.77;;
13238;SDS011;6686;51.292;4.166;2022-12-07T08:01:14;10.53;;;6.67;;
13238;SDS011;6686;51.292;4.166;2022-12-07T08:04:01;9.00;;;4.77;;
13238;SDS011;6686;51.292;4.166;2022-12-07T08:06:46;9.87;;;6.53;;
13238;SDS011;6686;51.292;4.166;2022-12-07T08:09:32;10.63;;;5.23;;
13238;SDS011;6686;51.292;4.166;2022-12-07T08:12:18;5.40;;;4.40;;
13238;SDS011;6686;51.292;4.166;2022-12-07T08:15:04;6.73;;;4.17;;
13238;SDS011;6686;51.292;4.166;2022-12-07T08:17:51;6.13;;;4.00;;
13238;SDS011;6686;51.292;4.166;2022-12-07T08:20:36;6.80;;;5.20;;
13238;SDS011;6686;51.292;4.166;2022-12-07T08:23:22;11.17;;;9.17;;
13238;SDS011;6686;51.292;4.166;2022-12-07T08:26:09;21.80;;;19.63;;
13238;SDS011;6686;51.292;4.166;2022-12-07T08:28:54;22.67;;;17.70;;
13238;SDS011;6686;51.292;4.166;2022-12-07T08:31:40;11.60;;;7.97;;
13238;SDS011;6686;51.292;4.166;2022-12-07T08:34:26;11.30;;;5.77;;
13238;SDS011;6686;51.292;4.166;2022-12-07T08:37:12;12.37;;;4.60;;
13238;SDS011;6686;51.292;4.166;2022-12-07T08:39:58;8.87;;;5.50;;
13238;SDS011;6686;51.292;4.166;2022-12-07T08:42:50;5.90;;;3.43;;
13238;SDS011;6686;51.292;4.166;2022-12-07T08:45:36;5.37;;;2.67;;
13238;SDS011;6686;51.292;4.166;2022-12-07T08:48:22;7.77;;;3.30;;
13238;SDS011;6686;51.292;4.166;2022-12-07T08:51:07;8.20;;;7.43;;
13238;SDS011;6686;51.292;4.166;2022-12-07T08:53:53;12.67;;;10.70;;
13238;SDS011;6686;51.292;4.166;2022-12-07T08:56:40;8.33;;;5.23;;
13238;SDS011;6686;51.292;4.166;2022-12-07T08:59:26;6.43;;;4.80;;
13238;SDS011;6686;51.292;4.166;2022-12-07T09:02:12;9.60;;;4.00;;
13238;SDS011;6686;51.292;4.166;2022-12-07T09:04:58;4.70;;;2.70;;
13238;SDS011;6686;51.292;4.166;2022-12-07T09:07:46;5.73;;;2.50;;
13238;SDS011;6686;51.292;4.166;2022-12-07T09:10:31;5.23;;;2.83;;
13238;SDS011;6686;51.292;4.166;2022-12-07T09:13:17;5.20;;;2.63;;
13238;SDS011;6686;51.292;4.166;2022-12-07T09:16:03;4.23;;;2.50;;
13238;SDS011;6686;51.292;4.166;2022-12-07T09:18:49;12.77;;;6.57;;
13238;SDS011;6686;51.292;4.166;2022-12-07T09:21:35;8.07;;;4.97;;
13238;SDS011;6686;51.292;4.166;2022-12-07T09:24:21;9.13;;;3.40;;
13238;SDS011;6686;51.292;4.166;2022-12-07T09:27:07;5.07;;;3.23;;
13238;SDS011;6686;51.292;4.166;2022-12-07T09:29:53;4.77;;;3.00;;
13238;SDS011;6686;51.292;4.166;2022-12-07T09:32:39;6.77;;;2.87;;
13238;SDS011;6686;51.292;4.166;2022-12-07T09:35:25;6.53;;;2.87;;
13238;SDS011;6686;51.292;4.166;2022-12-07T09:38:11;6.45;;;2.95;;
13238;SDS011;6686;51.292;4.166;2022-12-07T09:40:57;4.53;;;2.70;;
13238;SDS011;6686;51.292;4.166;2022-12-07T09:43:43;5.13;;;2.63;;
13238;SDS011;6686;51.292;4.166;2022-12-07T09:46:28;8.57;;;3.20;;
13238;SDS011;6686;51.292;4.166;2022-12-07T09:49:16;6.65;;;3.12;;
13238;SDS011;6686;51.292;4.166;2022-12-07T09:55:08;4.73;;;2.73;;
13238;SDS011;6686;51.292;4.166;2022-12-07T09:57:50;8.63;;;2.67;;
13238;SDS011;6686;51.292;4.166;2022-12-07T10:00:36;6.00;;;2.90;;
13238;SDS011;6686;51.292;4.166;2022-12-07T10:03:22;7.03;;;2.33;;
13238;SDS011;6686;51.292;4.166;2022-12-07T10:06:10;10.13;;;2.90;;
13238;SDS011;6686;51.292;4.166;2022-12-07T10:08:54;8.02;;;4.72;;
13238;SDS011;6686;51.292;4.166;2022-12-07T10:12:26;4.10;;;3.27;;
13238;SDS011;6686;51.292;4.166;2022-12-07T10:14:57;7.00;;;3.50;;
13238;SDS011;6686;51.292;4.166;2022-12-07T10:17:41;6.90;;;3.60;;
13238;SDS011;6686;51.292;4.166;2022-12-07T10:20:27;7.57;;;3.37;;
13238;SDS011;6686;51.292;4.166;2022-12-07T10:23:14;7.70;;;3.50;;
13238;SDS011;6686;51.292;4.166;2022-12-07T10:25:59;8.43;;;3.33;;
13238;SDS011;6686;51.292;4.166;2022-12-07T10:28:45;6.30;;;2.87;;
13238;SDS011;6686;51.292;4.166;2022-12-07T10:31:31;8.20;;;3.57;;
13238;SDS011;6686;51.292;4.166;2022-12-07T10:34:22;8.87;;;4.60;;
13238;SDS011;6686;51.292;4.166;2022-12-07T10:37:16;7.23;;;3.50;;
13238;SDS011;6686;51.292;4.166;2022-12-07T10:39:58;7.10;;;2.77;;
13238;SDS011;6686;51.292;4.166;2022-12-07T10:42:44;4.23;;;2.17;;
13238;SDS011;6686;51.292;4.166;2022-12-07T10:45:30;2.90;;;1.90;;
13238;SDS011;6686;51.292;4.166;2022-12-07T10:48:24;4.57;;;2.30;;
13238;SDS011;6686;51.292;4.166;2022-12-07T10:57:22;4.93;;;2.00;;
13238;SDS011;6686;51.292;4.166;2022-12-07T11:03:26;3.60;;;1.93;;
13238;SDS011;6686;51.292;4.166;2022-12-07T11:15:31;5.37;;;2.40;;
13238;SDS011;6686;51.292;4.166;2022-12-07T11:18:36;5.83;;;2.63;;
13238;SDS011;6686;51.292;4.166;2022-12-07T11:21:24;5.30;;;3.60;;
13238;SDS011;6686;51.292;4.166;2022-12-07T11:24:16;5.18;;;3.10;;
13238;SDS011;6686;51.292;4.166;2022-12-07T11:30:08;6.70;;;2.63;;
13238;SDS011;6686;51.292;4.166;2022-12-07T11:38:50;4.03;;;2.10;;
13238;SDS011;6686;51.292;4.166;2022-12-07T11:41:38;3.63;;;2.00;;
13238;SDS011;6686;51.292;4.166;2022-12-07T11:44:27;3.60;;;1.30;;
13238;SDS011;6686;51.292;4.166;2022-12-07T11:47:46;2.07;;;1.30;;
13238;SDS011;6686;51.292;4.166;2022-12-07T11:50:45;5.03;;;1.83;;
13238;SDS011;6686;51.292;4.166;2022-12-07T11:53:39;7.93;;;1.87;;
13238;SDS011;6686;51.292;4.166;2022-12-07T11:56:25;4.67;;;1.50;;
13238;SDS011;6686;51.292;4.166;2022-12-07T11:59:15;3.23;;;1.60;;
13238;SDS011;6686;51.292;4.166;2022-12-07T12:02:14;4.90;;;1.80;;
13238;SDS011;6686;51.292;4.166;2022-12-07T12:05:13;3.27;;;1.80;;
13238;SDS011;6686;51.292;4.166;2022-12-07T12:08:03;3.13;;;1.30;;
13238;SDS011;6686;51.292;4.166;2022-12-07T12:26:22;6.68;;;4.57;;
13238;SDS011;6686;51.292;4.166;2022-12-07T12:29:19;9.33;;;4.30;;
13238;SDS011;6686;51.292;4.166;2022-12-07T12:32:07;5.30;;;3.07;;
13238;SDS011;6686;51.292;4.166;2022-12-07T12:50:32;2.03;;;1.20;;
13238;SDS011;6686;51.292;4.166;2022-12-07T12:59:42;3.30;;;1.70;;
13238;SDS011;6686;51.292;4.166;2022-12-07T13:02:21;8.77;;;4.07;;
13238;SDS011;6686;51.292;4.166;2022-12-07T13:08:11;3.27;;;2.90;;
13238;SDS011;6686;51.292;4.166;2022-12-07T13:11:15;4.13;;;2.70;;
13238;SDS011;6686;51.292;4.166;2022-12-07T13:13:44;3.10;;;2.67;;
13238;SDS011;6686;51.292;4.166;2022-12-07T13:25:21;1.67;;;1.30;;
13238;SDS011;6686;51.292;4.166;2022-12-07T13:28:20;1.90;;;1.73;;
13238;SDS011;6686;51.292;4.166;2022-12-07T13:31:18;2.13;;;1.40;;
13238;SDS011;6686;51.292;4.166;2022-12-07T13:34:29;3.10;;;1.80;;
13238;SDS011;6686;51.292;4.166;2022-12-07T13:40:17;3.00;;;1.47;;
13238;SDS011;6686;51.292;4.166;2022-12-07T13:43:01;2.30;;;1.03;;
13238;SDS011;6686;51.292;4.166;2022-12-07T13:45:47;2.40;;;1.30;;
13238;SDS011;6686;51.292;4.166;2022-12-07T13:48:34;1.92;;;1.15;;
13238;SDS011;6686;51.292;4.166;2022-12-07T13:51:22;2.73;;;1.33;;
13238;SDS011;6686;51.292;4.166;2022-12-07T13:54:11;3.87;;;2.67;;
13238;SDS011;6686;51.292;4.166;2022-12-07T13:56:56;4.90;;;2.70;;
13238;SDS011;6686;51.292;4.166;2022-12-07T13:59:43;1.37;;;1.20;;
13238;SDS011;6686;51.292;4.166;2022-12-07T14:02:30;2.83;;;1.20;;
13238;SDS011;6686;51.292;4.166;2022-12-07T14:05:25;3.13;;;1.43;;
13238;SDS011;6686;51.292;4.166;2022-12-07T14:10:59;3.77;;;1.30;;
13238;SDS011;6686;51.292;4.166;2022-12-07T14:16:35;2.27;;;1.23;;
13238;SDS011;6686;51.292;4.166;2022-12-07T14:22:34;1.87;;;1.10;;
13238;SDS011;6686;51.292;4.166;2022-12-07T14:25:23;4.70;;;1.20;;
13238;SDS011;6686;51.292;4.166;2022-12-07T14:28:09;3.10;;;1.30;;
13238;SDS011;6686;51.292;4.166;2022-12-07T14:30:55;1.50;;;1.23;;
13238;SDS011;6686;51.292;4.166;2022-12-07T14:33:40;1.73;;;1.30;;
13238;SDS011;6686;51.292;4.166;2022-12-07T14:36:26;2.27;;;1.30;;
13238;SDS011;6686;51.292;4.166;2022-12-07T14:39:12;3.30;;;1.60;;
13238;SDS011;6686;51.292;4.166;2022-12-07T14:41:58;3.13;;;1.40;;
13238;SDS011;6686;51.292;4.166;2022-12-07T14:44:44;3.80;;;1.60;;
13238;SDS011;6686;51.292;4.166;2022-12-07T14:47:30;5.53;;;2.43;;
13238;SDS011;6686;51.292;4.166;2022-12-07T14:50:18;3.50;;;1.90;;
13238;SDS011;6686;51.292;4.166;2022-12-07T14:53:03;2.30;;;1.67;;
13238;SDS011;6686;51.292;4.166;2022-12-07T14:55:48;3.53;;;1.60;;
13238;SDS011;6686;51.292;4.166;2022-12-07T14:58:37;3.10;;;2.53;;
13238;SDS011;6686;51.292;4.166;2022-12-07T15:01:24;3.40;;;1.97;;
13238;SDS011;6686;51.292;4.166;2022-12-07T15:04:10;6.20;;;3.13;;
13238;SDS011;6686;51.292;4.166;2022-12-07T15:07:00;4.70;;;2.77;;
13238;SDS011;6686;51.292;4.166;2022-12-07T15:09:44;5.10;;;2.50;;
13238;SDS011;6686;51.292;4.166;2022-12-07T15:12:33;2.20;;;1.87;;
13238;SDS011;6686;51.292;4.166;2022-12-07T15:15:19;2.93;;;1.67;;
13238;SDS011;6686;51.292;4.166;2022-12-07T15:18:05;2.33;;;1.50;;
13238;SDS011;6686;51.292;4.166;2022-12-07T15:20:51;3.07;;;1.47;;
13238;SDS011;6686;51.292;4.166;2022-12-07T15:23:37;4.83;;;1.47;;
13238;SDS011;6686;51.292;4.166;2022-12-07T15:26:23;1.83;;;1.33;;
13238;SDS011;6686;51.292;4.166;2022-12-07T15:29:09;3.73;;;1.83;;
13238;SDS011;6686;51.292;4.166;2022-12-07T15:31:55;2.23;;;1.43;;
13238;SDS011;6686;51.292;4.166;2022-12-07T15:34:41;2.90;;;1.70;;
13238;SDS011;6686;51.292;4.166;2022-12-07T15:37:27;4.07;;;2.70;;
13238;SDS011;6686;51.292;4.166;2022-12-07T15:40:13;4.23;;;2.57;;
13238;SDS011;6686;51.292;4.166;2022-12-07T15:42:58;3.33;;;2.13;;
13238;SDS011;6686;51.292;4.166;2022-12-07T15:45:44;5.27;;;2.50;;
13238;SDS011;6686;51.292;4.166;2022-12-07T15:48:31;2.77;;;2.07;;
13238;SDS011;6686;51.292;4.166;2022-12-07T15:51:17;3.57;;;2.53;;
13238;SDS011;6686;51.292;4.166;2022-12-07T15:54:02;5.07;;;3.93;;
13238;SDS011;6686;51.292;4.166;2022-12-07T15:56:48;3.53;;;2.10;;
13238;SDS011;6686;51.292;4.166;2022-12-07T15:59:34;3.67;;;2.47;;
13238;SDS011;6686;51.292;4.166;2022-12-07T16:02:20;6.17;;;3.20;;
13238;SDS011;6686;51.292;4.166;2022-12-07T16:05:06;3.77;;;1.37;;
13238;SDS011;6686;51.292;4.166;2022-12-07T16:07:52;4.67;;;2.87;;
13238;SDS011;6686;51.292;4.166;2022-12-07T16:10:38;8.30;;;3.57;;
13238;SDS011;6686;51.292;4.166;2022-12-07T16:13:25;5.53;;;3.40;;
13238;SDS011;6686;51.292;4.166;2022-12-07T16:16:12;13.23;;;9.33;;
13238;SDS011;6686;51.292;4.166;2022-12-07T16:18:57;6.77;;;2.00;;
13238;SDS011;6686;51.292;4.166;2022-12-07T16:21:43;7.27;;;5.20;;
13238;SDS011;6686;51.292;4.166;2022-12-07T16:24:30;4.10;;;3.40;;
13238;SDS011;6686;51.292;4.166;2022-12-07T16:27:16;3.05;;;2.55;;
13238;SDS011;6686;51.292;4.166;2022-12-07T16:30:01;4.43;;;1.50;;
13238;SDS011;6686;51.292;4.166;2022-12-07T16:32:48;2.57;;;1.43;;
13238;SDS011;6686;51.292;4.166;2022-12-07T16:35:41;3.00;;;1.20;;
13238;SDS011;6686;51.292;4.166;2022-12-07T16:41:30;4.83;;;2.10;;
13238;SDS011;6686;51.292;4.166;2022-12-07T16:44:16;2.40;;;1.53;;
13238;SDS011;6686;51.292;4.166;2022-12-07T16:47:03;2.03;;;1.60;;
13238;SDS011;6686;51.292;4.166;2022-12-07T16:49:49;5.70;;;2.20;;
13238;SDS011;6686;51.292;4.166;2022-12-07T16:52:35;4.13;;;2.27;;
13238;SDS011;6686;51.292;4.166;2022-12-07T16:55:20;3.60;;;2.10;;
13238;SDS011;6686;51.292;4.166;2022-12-07T16:58:07;4.70;;;2.13;;
13238;SDS011;6686;51.292;4.166;2022-12-07T17:00:53;4.70;;;2.30;;
13238;SDS011;6686;51.292;4.166;2022-12-07T17:03:38;3.03;;;2.40;;
13238;SDS011;6686;51.292;4.166;2022-12-07T17:06:27;4.43;;;2.10;;
13238;SDS011;6686;51.292;4.166;2022-12-07T17:09:11;3.67;;;2.70;;
13238;SDS011;6686;51.292;4.166;2022-12-07T17:11:57;3.17;;;2.30;;
13238;SDS011;6686;51.292;4.166;2022-12-07T17:14:43;5.40;;;2.57;;
13238;SDS011;6686;51.292;4.166;2022-12-07T17:17:52;6.13;;;3.30;;
13238;SDS011;6686;51.292;4.166;2022-12-07T17:20:36;2.93;;;1.87;;
13238;SDS011;6686;51.292;4.166;2022-12-07T17:23:22;2.63;;;2.17;;
13238;SDS011;6686;51.292;4.166;2022-12-07T17:26:09;4.15;;;2.40;;
13238;SDS011;6686;51.292;4.166;2022-12-07T17:28:53;5.55;;;2.78;;
13238;SDS011;6686;51.292;4.166;2022-12-07T17:31:39;5.10;;;3.20;;
13238;SDS011;6686;51.292;4.166;2022-12-07T17:34:26;10.23;;;4.80;;
13238;SDS011;6686;51.292;4.166;2022-12-07T17:37:12;7.63;;;3.10;;
13238;SDS011;6686;51.292;4.166;2022-12-07T17:39:57;6.10;;;3.83;;
13238;SDS011;6686;51.292;4.166;2022-12-07T17:42:43;5.03;;;3.90;;
13238;SDS011;6686;51.292;4.166;2022-12-07T17:45:29;4.93;;;2.87;;
13238;SDS011;6686;51.292;4.166;2022-12-07T17:48:15;4.37;;;2.95;;
13238;SDS011;6686;51.292;4.166;2022-12-07T17:51:01;4.07;;;2.77;;
13238;SDS011;6686;51.292;4.166;2022-12-07T17:54:05;4.90;;;2.80;;
13238;SDS011;6686;51.292;4.166;2022-12-07T17:56:51;4.63;;;2.97;;
13238;SDS011;6686;51.292;4.166;2022-12-07T17:59:37;3.60;;;3.20;;
13238;SDS011;6686;51.292;4.166;2022-12-07T18:02:22;9.37;;;6.33;;
13238;SDS011;6686;51.292;4.166;2022-12-07T18:05:08;8.27;;;6.93;;
13238;SDS011;6686;51.292;4.166;2022-12-07T18:07:53;8.70;;;7.27;;
13238;SDS011;6686;51.292;4.166;2022-12-07T18:10:39;12.07;;;7.93;;
13238;SDS011;6686;51.292;4.166;2022-12-07T18:13:24;10.53;;;6.63;;
13238;SDS011;6686;51.292;4.166;2022-12-07T18:16:23;8.53;;;5.97;;
13238;SDS011;6686;51.292;4.166;2022-12-07T18:19:08;9.02;;;6.80;;
13238;SDS011;6686;51.292;4.166;2022-12-07T18:21:54;9.53;;;5.90;;
13238;SDS011;6686;51.292;4.166;2022-12-07T18:24:40;7.27;;;5.77;;
13238;SDS011;6686;51.292;4.166;2022-12-07T18:27:25;10.13;;;6.53;;
13238;SDS011;6686;51.292;4.166;2022-12-07T18:30:11;6.63;;;5.70;;
13238;SDS011;6686;51.292;4.166;2022-12-07T18:32:57;7.93;;;5.73;;
13238;SDS011;6686;51.292;4.166;2022-12-07T18:35:43;9.30;;;5.60;;
13238;SDS011;6686;51.292;4.166;2022-12-07T18:38:28;7.80;;;5.93;;
13238;SDS011;6686;51.292;4.166;2022-12-07T18:41:14;9.53;;;6.30;;
13238;SDS011;6686;51.292;4.166;2022-12-07T18:44:01;10.77;;;6.07;;
13238;SDS011;6686;51.292;4.166;2022-12-07T18:46:46;9.03;;;5.83;;
13238;SDS011;6686;51.292;4.166;2022-12-07T18:49:31;6.63;;;5.93;;
13238;SDS011;6686;51.292;4.166;2022-12-07T18:52:16;13.87;;;6.90;;
13238;SDS011;6686;51.292;4.166;2022-12-07T18:55:02;7.57;;;5.80;;
13238;SDS011;6686;51.292;4.166;2022-12-07T18:57:48;8.30;;;6.20;;
13238;SDS011;6686;51.292;4.166;2022-12-07T19:00:33;7.03;;;5.23;;